Time;durP1;ratioP1;P1;durP2;ratioP2;P2;SDS_P1;SDS_P2;PMS_P1;PMS_P2;Temp;Humidity;BMP_temperature;BMP_pressure;BME280_temperature;BME280_humidity;BME280_pressure;Samples;Min_cycle;Max_cycle;Signal;HPM_P1;HPM_P2
2022/03/30 00:00:14;;;;;;;;;;;13.40;99.90;;;;;;5056508;28;19909;-82
2022/03/30 00:02:39;;;;;;;;;;;13.40;99.90;;;;;;5056487;28;19924;-83
2022/03/30 00:05:05;;;;;;;;;;;13.50;99.90;;;;;;5056287;28;20387;-83
2022/03/30 00:07:31;;;;;;;;;;;13.40;99.90;;;;;;5056315;28;19909;-82
2022/03/30 00:10:03;;;;;;;;;;;13.30;99.90;;;;;;5056473;28;19916;-82
2022/03/30 00:12:29;;;;;;;;;;;13.40;99.90;;;;;;5056173;28;19913;-82
2022/03/30 00:14:55;;;;;;;;;;;13.30;99.90;;;;;;5056247;28;20255;-83
2022/03/30 00:17:21;;;;;;;;;;;13.40;99.90;;;;;;5054647;28;19956;-82
2022/03/30 00:19:46;;;;;;;;;;;13.40;99.90;;;;;;5056120;28;19954;-81
2022/03/30 00:22:12;;;;;;;;;;;13.40;99.90;;;;;;5054787;28;20327;-82
2022/03/30 00:24:38;;;;;;;;;;;13.30;99.90;;;;;;5054685;28;19920;-82
2022/03/30 00:27:06;;;;;;;;;;;13.20;99.90;;;;;;5054820;28;19913;-82
2022/03/30 00:29:32;;;;;;;;;;;13.30;99.90;;;;;;5055910;28;19915;-82
2022/03/30 00:31:57;;;;;;;;;;;13.40;99.90;;;;;;5055867;28;20007;-82
2022/03/30 00:34:23;;;;;;;;;;;13.40;99.90;;;;;;5054550;28;19908;-82
2022/03/30 00:36:48;;;;;;;;;;;13.40;99.90;;;;;;5055857;28;20015;-82
2022/03/30 00:39:16;;;;;;;;;;;13.40;99.90;;;;;;5055696;28;19916;-82
2022/03/30 00:41:42;;;;;;;;;;;13.30;99.90;;;;;;5055712;28;19977;-82
2022/03/30 00:44:12;;;;;;;;;;;13.50;99.90;;;;;;5055780;28;20380;-82
2022/03/30 00:46:37;;;;;;;;;;;13.50;99.90;;;;;;5055474;28;19913;-82
2022/03/30 00:49:04;;;;;;;;;;;13.40;99.90;;;;;;5055681;28;20050;-82
2022/03/30 00:51:30;;;;;;;;;;;13.30;99.90;;;;;;5055546;28;20276;-82
2022/03/30 00:53:55;;;;;;;;;;;13.20;99.90;;;;;;5055398;28;19913;-83
2022/03/30 00:56:21;;;;;;;;;;;13.10;99.90;;;;;;5055789;28;19916;-83
2022/03/30 00:58:46;;;;;;;;;;;13.20;99.90;;;;;;5055567;28;20335;-82
2022/03/30 01:01:12;;;;;;;;;;;13.30;99.90;;;;;;5055455;28;19996;-82
2022/03/30 01:03:38;;;;;;;;;;;13.20;99.90;;;;;;5053791;28;20021;-83
2022/03/30 01:06:03;;;;;;;;;;;13.20;99.90;;;;;;5055153;28;19920;-82
2022/03/30 01:08:29;;;;;;;;;;;13.10;99.90;;;;;;5055480;28;19909;-82
2022/03/30 01:10:55;;;;;;;;;;;13.10;99.90;;;;;;5055221;28;19955;-82
2022/03/30 01:13:21;;;;;;;;;;;13.00;99.90;;;;;;5055161;28;19915;-82
2022/03/30 01:15:46;;;;;;;;;;;13.00;99.90;;;;;;5055034;28;19995;-82
2022/03/30 01:18:12;;;;;;;;;;;13.10;99.90;;;;;;5053271;28;19920;-82
2022/03/30 01:20:38;;;;;;;;;;;13.20;99.90;;;;;;5054993;28;19920;-82
2022/03/30 01:23:03;;;;;;;;;;;13.30;99.90;;;;;;5054841;28;20381;-82
2022/03/30 01:25:29;;;;;;;;;;;13.30;99.90;;;;;;5054872;28;20293;-82
2022/03/30 01:27:55;;;;;;;;;;;13.40;99.90;;;;;;5055269;28;20353;-82
2022/03/30 01:33:07;;;;;;;;;;;13.40;99.90;;;;;;5054591;28;19963;-82
2022/03/30 01:35:33;;;;;;;;;;;13.30;99.90;;;;;;5054779;28;19909;-82
2022/03/30 01:37:59;;;;;;;;;;;13.20;99.90;;;;;;5053070;28;19915;-82
2022/03/30 01:40:25;;;;;;;;;;;13.20;99.90;;;;;;5053123;28;20003;-82
2022/03/30 01:42:50;;;;;;;;;;;13.10;99.90;;;;;;5054909;28;19908;-82
2022/03/30 01:45:16;;;;;;;;;;;13.10;99.90;;;;;;5054422;28;19919;-81
2022/03/30 01:47:56;;;;;;;;;;;13.00;99.90;;;;;;5054396;28;19935;-82
2022/03/30 01:50:22;;;;;;;;;;;13.00;99.90;;;;;;5054423;28;19972;-82
2022/03/30 01:52:48;;;;;;;;;;;13.10;99.90;;;;;;5054448;28;19999;-82
2022/03/30 01:55:14;;;;;;;;;;;13.00;99.90;;;;;;5054251;28;19923;-82
2022/03/30 01:57:40;;;;;;;;;;;12.90;99.90;;;;;;5054322;28;19909;-82
2022/03/30 02:00:06;;;;;;;;;;;12.90;99.90;;;;;;5054197;28;20280;-82
2022/03/30 02:02:32;;;;;;;;;;;12.90;99.90;;;;;;5054103;28;19909;-82
2022/03/30 02:04:58;;;;;;;;;;;12.90;99.90;;;;;;5054041;28;19919;-82
2022/03/30 02:07:23;;;;;;;;;;;12.80;99.90;;;;;;5052801;28;19951;-82
2022/03/30 02:09:49;;;;;;;;;;;12.90;99.90;;;;;;5054050;28;19916;-83
2022/03/30 02:12:15;;;;;;;;;;;12.90;99.90;;;;;;5052473;28;19909;-82
2022/03/30 02:14:41;;;;;;;;;;;12.90;99.90;;;;;;5054154;28;20007;-82
2022/03/30 02:17:07;;;;;;;;;;;12.90;99.90;;;;;;5053764;28;19909;-82
2022/03/30 02:19:32;;;;;;;;;;;12.80;99.90;;;;;;5053494;28;19920;-82
2022/03/30 02:21:58;;;;;;;;;;;12.90;99.90;;;;;;5054021;28;19913;-82
2022/03/30 02:24:24;;;;;;;;;;;12.90;99.90;;;;;;5053743;28;20377;-82
2022/03/30 02:26:50;;;;;;;;;;;12.80;99.90;;;;;;5053788;28;20369;-82
2022/03/30 02:29:16;;;;;;;;;;;12.70;99.90;;;;;;5053754;28;19913;-82
2022/03/30 02:31:44;;;;;;;;;;;12.80;99.90;;;;;;5053690;28;19923;-82
2022/03/30 02:34:10;;;;;;;;;;;12.80;99.90;;;;;;5053665;28;20270;-82
2022/03/30 02:36:36;;;;;;;;;;;12.80;99.90;;;;;;5053956;28;19996;-82
2022/03/30 02:39:03;;;;;;;;;;;12.80;99.90;;;;;;5053584;28;19923;-83
2022/03/30 02:41:28;;;;;;;;;;;12.90;99.90;;;;;;5053596;28;19966;-82
2022/03/30 02:43:54;;;;;;;;;;;13.00;99.90;;;;;;5053578;28;19909;-81
2022/03/30 02:46:19;;;;;;;;;;;12.90;99.90;;;;;;5053583;28;19912;-83
2022/03/30 02:48:45;;;;;;;;;;;12.90;99.90;;;;;;5053785;28;19944;-82
2022/03/30 02:51:11;;;;;;;;;;;12.90;99.90;;;;;;5034953;28;20373;-83
2022/03/30 02:53:36;;;;;;;;;;;12.90;99.90;;;;;;5053296;28;19910;-82
2022/03/30 02:56:03;;;;;;;;;;;12.90;99.90;;;;;;5053727;28;19909;-82
2022/03/30 02:58:29;;;;;;;;;;;12.90;99.90;;;;;;5053607;28;19919;-82
2022/03/30 03:00:54;;;;;;;;;;;13.00;99.90;;;;;;5053348;28;19909;-82
2022/03/30 03:03:21;;;;;;;;;;;12.90;99.90;;;;;;5035567;28;19913;-82
2022/03/30 03:05:46;;;;;;;;;;;13.00;99.90;;;;;;5053267;28;19913;-82
2022/03/30 03:08:12;;;;;;;;;;;13.00;99.90;;;;;;5053330;28;19909;-81
2022/03/30 03:10:39;;;;;;;;;;;12.90;99.90;;;;;;5035442;28;20302;-82
2022/03/30 03:13:05;;;;;;;;;;;12.90;99.90;;;;;;5053376;28;19908;-82
2022/03/30 03:15:32;;;;;;;;;;;12.90;99.90;;;;;;5053322;28;19909;-82
2022/03/30 03:17:58;;;;;;;;;;;13.00;99.90;;;;;;5053465;28;19920;-82
2022/03/30 03:20:24;;;;;;;;;;;13.00;99.90;;;;;;5035359;28;19999;-81
2022/03/30 03:22:49;;;;;;;;;;;13.10;99.90;;;;;;5053426;28;19908;-82
2022/03/30 03:25:15;;;;;;;;;;;13.00;99.90;;;;;;5053279;28;19924;-83
2022/03/30 03:27:40;;;;;;;;;;;13.10;99.90;;;;;;5053233;28;19958;-82
2022/03/30 03:30:06;;;;;;;;;;;13.00;99.90;;;;;;5053418;28;20389;-83
2022/03/30 03:32:32;;;;;;;;;;;12.90;99.90;;;;;;5053150;28;20340;-82
2022/03/30 03:34:58;;;;;;;;;;;12.90;99.90;;;;;;5053418;28;19928;-82
2022/03/30 03:37:23;;;;;;;;;;;13.00;99.90;;;;;;5035228;28;19953;-82
2022/03/30 03:39:49;;;;;;;;;;;13.00;99.90;;;;;;5053170;28;19909;-82
2022/03/30 03:42:16;;;;;;;;;;;12.90;99.90;;;;;;5053053;28;20378;-83
2022/03/30 03:44:41;;;;;;;;;;;12.90;99.90;;;;;;5053013;28;19951;-82
2022/03/30 03:47:09;;;;;;;;;;;13.00;99.90;;;;;;5053118;28;19940;-82
2022/03/30 03:49:38;;;;;;;;;;;13.20;99.90;;;;;;5053201;28;19915;-82
2022/03/30 03:52:04;;;;;;;;;;;12.90;99.90;;;;;;5052943;28;19909;-81
2022/03/30 03:54:30;;;;;;;;;;;12.90;99.90;;;;;;5052833;28;20357;-82
2022/03/30 03:56:55;;;;;;;;;;;12.70;99.90;;;;;;5052941;28;19915;-82
2022/03/30 03:59:21;;;;;;;;;;;12.70;99.90;;;;;;5052897;28;19909;-82
2022/03/30 04:01:46;;;;;;;;;;;12.70;99.90;;;;;;5054170;28;19916;-82
2022/03/30 04:04:12;;;;;;;;;;;12.70;99.90;;;;;;5056484;28;20361;-82
2022/03/30 04:06:37;;;;;;;;;;;12.60;99.90;;;;;;5056401;28;19912;-82
2022/03/30 04:09:03;;;;;;;;;;;12.70;99.90;;;;;;5038459;28;19915;-82
2022/03/30 04:11:29;;;;;;;;;;;12.80;99.90;;;;;;5056304;28;19921;-82
2022/03/30 04:13:55;;;;;;;;;;;12.80;99.90;;;;;;5056268;28;19908;-82
2022/03/30 04:16:20;;;;;;;;;;;12.80;99.90;;;;;;5056278;28;19958;-83
2022/03/30 04:18:46;;;;;;;;;;;12.70;99.90;;;;;;5056011;28;19928;-82
2022/03/30 04:21:12;;;;;;;;;;;12.80;99.90;;;;;;5056080;28;19916;-82
2022/03/30 04:23:37;;;;;;;;;;;12.70;99.90;;;;;;5056090;28;19909;-82
2022/03/30 04:26:03;;;;;;;;;;;12.70;99.90;;;;;;5056061;28;20327;-82
2022/03/30 04:28:29;;;;;;;;;;;12.70;99.90;;;;;;5055971;28;19917;-82
2022/03/30 04:30:55;;;;;;;;;;;12.70;99.90;;;;;;5055952;28;19916;-82
2022/03/30 04:33:20;;;;;;;;;;;12.70;99.90;;;;;;5038000;28;20385;-83
2022/03/30 04:35:46;;;;;;;;;;;12.60;99.90;;;;;;5055841;28;19909;-82
2022/03/30 04:38:12;;;;;;;;;;;12.60;99.90;;;;;;5055757;28;19916;-82
2022/03/30 04:40:37;;;;;;;;;;;12.60;99.90;;;;;;5056141;28;19915;-82
2022/03/30 04:43:03;;;;;;;;;;;12.60;99.90;;;;;;5037829;28;19909;-81
2022/03/30 04:45:29;;;;;;;;;;;12.50;99.90;;;;;;5037684;28;20019;-82
2022/03/30 04:47:54;;;;;;;;;;;12.40;99.90;;;;;;5055674;28;20004;-82
2022/03/30 04:50:21;;;;;;;;;;;12.40;99.90;;;;;;5055942;28;20008;-82
2022/03/30 04:52:47;;;;;;;;;;;12.40;99.90;;;;;;5055585;28;19908;-82
2022/03/30 04:55:12;;;;;;;;;;;12.50;99.90;;;;;;5055421;28;19916;-82
2022/03/30 04:57:38;;;;;;;;;;;12.50;99.90;;;;;;5037568;28;19912;-82
2022/03/30 05:00:05;;;;;;;;;;;12.50;99.90;;;;;;5055494;28;19908;-82
2022/03/30 05:02:33;;;;;;;;;;;12.50;99.90;;;;;;5055543;28;19909;-81
2022/03/30 05:04:59;;;;;;;;;;;12.50;99.90;;;;;;5055252;28;20266;-82
2022/03/30 05:07:25;;;;;;;;;;;12.50;99.90;;;;;;5055279;28;19996;-82
2022/03/30 05:09:51;;;;;;;;;;;12.50;99.90;;;;;;5055701;28;19913;-82
2022/03/30 05:12:17;;;;;;;;;;;12.40;99.90;;;;;;5055520;28;20397;-82
2022/03/30 05:14:43;;;;;;;;;;;12.50;99.90;;;;;;5036641;28;19908;-81
2022/03/30 05:17:08;;;;;;;;;;;12.50;99.90;;;;;;5055008;28;19921;-82
2022/03/30 05:19:34;;;;;;;;;;;12.60;99.90;;;;;;5055024;28;19923;-82
2022/03/30 05:22:00;;;;;;;;;;;12.50;99.90;;;;;;5054971;28;19909;-81
2022/03/30 05:24:26;;;;;;;;;;;12.40;99.90;;;;;;5037486;28;20410;-82
2022/03/30 05:26:53;;;;;;;;;;;12.50;99.90;;;;;;5037015;28;19916;-81
2022/03/30 05:29:19;;;;;;;;;;;12.60;99.90;;;;;;5054827;28;19927;-81
2022/03/30 05:31:46;;;;;;;;;;;12.50;99.90;;;;;;5054019;28;21325;-82
2022/03/30 05:34:12;;;;;;;;;;;12.50;99.90;;;;;;5054775;28;19915;-82
2022/03/30 05:36:38;;;;;;;;;;;12.50;99.90;;;;;;5054966;28;19909;-82
2022/03/30 05:39:03;;;;;;;;;;;12.50;99.90;;;;;;5036824;28;19913;-82
2022/03/30 05:41:29;;;;;;;;;;;12.50;99.90;;;;;;5054684;28;19954;-82
2022/03/30 05:43:54;;;;;;;;;;;12.50;99.90;;;;;;5036703;28;19913;-84
2022/03/30 05:46:20;;;;;;;;;;;12.40;99.90;;;;;;5054700;28;19912;-85
2022/03/30 05:48:46;;;;;;;;;;;12.40;99.90;;;;;;5054480;28;19955;-84
2022/03/30 05:51:11;;;;;;;;;;;12.30;99.90;;;;;;5054586;28;19909;-84
2022/03/30 05:53:37;;;;;;;;;;;12.20;99.90;;;;;;5054095;28;20380;-85
2022/03/30 05:56:03;;;;;;;;;;;12.30;99.90;;;;;;5054268;28;19909;-84
2022/03/30 05:58:28;;;;;;;;;;;12.20;99.90;;;;;;5054738;28;19912;-85
2022/03/30 06:00:54;;;;;;;;;;;12.20;99.90;;;;;;5054047;28;19908;-85
2022/03/30 06:03:19;;;;;;;;;;;12.30;99.90;;;;;;5036349;28;19909;-85
2022/03/30 06:05:45;;;;;;;;;;;12.30;99.90;;;;;;5054127;28;19913;-85
2022/03/30 06:08:11;;;;;;;;;;;12.20;99.90;;;;;;5036208;28;20365;-85
2022/03/30 06:10:36;;;;;;;;;;;12.20;99.90;;;;;;5054130;28;19909;-85
2022/03/30 06:13:02;;;;;;;;;;;12.20;99.90;;;;;;5054201;28;20353;-82
2022/03/30 06:15:28;;;;;;;;;;;12.20;99.90;;;;;;5054110;28;20316;-82
2022/03/30 06:17:55;;;;;;;;;;;12.30;99.90;;;;;;5053820;28;19920;-82
2022/03/30 06:20:24;;;;;;;;;;;12.30;99.90;;;;;;5054150;28;19913;-82
2022/03/30 06:22:53;;;;;;;;;;;12.20;99.90;;;;;;5054047;28;19913;-82
2022/03/30 06:25:20;;;;;;;;;;;12.20;99.90;;;;;;5052910;28;19917;-82
2022/03/30 06:27:46;;;;;;;;;;;12.20;99.90;;;;;;5053868;28;19909;-82
2022/03/30 06:30:12;;;;;;;;;;;12.30;99.90;;;;;;5054235;28;19924;-81
2022/03/30 06:32:38;;;;;;;;;;;12.20;99.90;;;;;;5035924;28;19909;-82
2022/03/30 06:35:04;;;;;;;;;;;12.20;99.90;;;;;;5053991;28;19909;-82
2022/03/30 06:37:30;;;;;;;;;;;12.20;99.90;;;;;;5053693;28;19916;-83
2022/03/30 06:39:56;;;;;;;;;;;12.30;99.90;;;;;;5035819;28;19908;-82
2022/03/30 06:42:22;;;;;;;;;;;12.30;99.90;;;;;;5035755;28;20297;-82
2022/03/30 06:44:47;;;;;;;;;;;12.40;99.90;;;;;;5053517;28;19917;-82
2022/03/30 06:47:13;;;;;;;;;;;12.40;99.90;;;;;;5053582;28;19909;-82
2022/03/30 06:49:39;;;;;;;;;;;12.40;99.90;;;;;;5053684;28;19912;-82
2022/03/30 06:52:05;;;;;;;;;;;12.40;99.90;;;;;;5053816;28;19937;-82
2022/03/30 06:54:31;;;;;;;;;;;12.50;99.90;;;;;;5053338;28;19909;-82
2022/03/30 06:56:59;;;;;;;;;;;12.50;99.90;;;;;;5053493;28;19916;-82
2022/03/30 06:59:25;;;;;;;;;;;12.50;99.90;;;;;;5053452;28;20328;-82
2022/03/30 07:01:51;;;;;;;;;;;12.60;99.90;;;;;;5053472;28;19908;-82
2022/03/30 07:04:17;;;;;;;;;;;12.60;99.90;;;;;;5053572;28;19908;-83
2022/03/30 07:10:15;;;;;;;;;;;12.70;99.90;;;;;;5053331;28;19920;-82
2022/03/30 07:12:12;;;;;;;;;;;12.80;99.90;;;;;;5053248;28;19924;-82
2022/03/30 07:14:38;;;;;;;;;;;12.70;99.90;;;;;;5053355;28;19909;-82
2022/03/30 07:17:03;;;;;;;;;;;12.70;99.90;;;;;;5053266;28;20296;-82
2022/03/30 07:19:29;;;;;;;;;;;12.70;99.90;;;;;;5053148;28;20058;-82
2022/03/30 07:21:55;;;;;;;;;;;12.70;99.90;;;;;;5053622;28;20272;-81
2022/03/30 07:24:20;;;;;;;;;;;12.80;99.90;;;;;;5053439;28;19916;-82
2022/03/30 07:26:46;;;;;;;;;;;12.80;99.90;;;;;;5053245;28;20428;-82
2022/03/30 07:29:11;;;;;;;;;;;12.80;99.90;;;;;;5053243;28;19908;-82
2022/03/30 07:31:37;;;;;;;;;;;12.80;99.90;;;;;;5053236;28;20004;-82
2022/03/30 07:34:04;;;;;;;;;;;12.90;99.90;;;;;;5053438;28;20392;-82
2022/03/30 07:36:29;;;;;;;;;;;12.80;99.90;;;;;;5054170;28;19913;-82
2022/03/30 07:38:57;;;;;;;;;;;12.90;99.90;;;;;;5057041;28;19909;-82
2022/03/30 07:41:23;;;;;;;;;;;12.90;99.90;;;;;;5057379;28;19959;-82
2022/03/30 07:43:48;;;;;;;;;;;13.00;99.90;;;;;;5056871;28;19912;-82
2022/03/30 07:46:15;;;;;;;;;;;13.00;99.90;;;;;;5057009;28;19913;-83
2022/03/30 07:48:40;;;;;;;;;;;13.00;99.90;;;;;;5056793;28;20000;-82
2022/03/30 07:51:06;;;;;;;;;;;12.90;99.90;;;;;;5056703;28;19941;-82
2022/03/30 07:53:32;;;;;;;;;;;12.90;99.90;;;;;;5056692;28;19908;-82
2022/03/30 07:55:58;;;;;;;;;;;12.90;99.90;;;;;;5056600;28;20349;-82
2022/03/30 07:58:25;;;;;;;;;;;12.80;99.90;;;;;;5056905;28;19955;-82
2022/03/30 08:00:51;;;;;;;;;;;12.80;99.90;;;;;;5056643;28;19916;-82
2022/03/30 08:03:26;;;;;;;;;;;12.80;99.90;;;;;;5056546;28;19917;-82
2022/03/30 08:05:55;;;;;;;;;;;12.80;99.90;;;;;;5056760;28;19920;-82
2022/03/30 08:08:25;;;;;;;;;;;12.70;99.90;;;;;;5056388;28;19980;-82
2022/03/30 08:10:50;;;;;;;;;;;12.70;99.90;;;;;;5056471;28;19914;-82
2022/03/30 08:13:16;;;;;;;;;;;12.80;99.90;;;;;;5056245;28;19916;-82
2022/03/30 08:15:43;;;;;;;;;;;12.90;99.90;;;;;;5056146;28;19909;-82
2022/03/30 08:18:09;;;;;;;;;;;12.90;99.90;;;;;;5055972;28;20313;-83
2022/03/30 08:23:18;;;;;;;;;;;13.00;99.90;;;;;;5056125;28;20343;-82
2022/03/30 08:25:44;;;;;;;;;;;13.00;99.90;;;;;;5056160;28;19912;-82
2022/03/30 08:28:10;;;;;;;;;;;13.10;99.90;;;;;;5056137;28;20282;-82
2022/03/30 08:30:35;;;;;;;;;;;13.20;99.90;;;;;;5055964;28;19963;-82
2022/03/30 08:33:02;;;;;;;;;;;13.20;99.90;;;;;;5055910;28;20281;-82
2022/03/30 08:35:29;;;;;;;;;;;13.20;99.90;;;;;;5055845;28;19944;-82
2022/03/30 08:37:54;;;;;;;;;;;13.20;99.90;;;;;;5055981;28;19908;-83
2022/03/30 08:40:20;;;;;;;;;;;13.20;99.90;;;;;;5055825;28;19955;-83
2022/03/30 08:42:46;;;;;;;;;;;13.20;99.90;;;;;;5055768;28;19956;-82
2022/03/30 08:45:12;;;;;;;;;;;13.30;99.90;;;;;;5055839;28;20357;-82
2022/03/30 08:47:37;;;;;;;;;;;13.20;99.90;;;;;;5055049;28;19948;-82
2022/03/30 08:50:04;;;;;;;;;;;13.20;99.90;;;;;;5055231;28;20007;-82
2022/03/30 08:52:30;;;;;;;;;;;13.20;99.90;;;;;;5055648;28;19940;-82
2022/03/30 08:54:57;;;;;;;;;;;13.20;99.90;;;;;;5055425;28;19909;-82
2022/03/30 08:57:22;;;;;;;;;;;13.30;99.90;;;;;;5037623;28;19916;-82
2022/03/30 08:59:57;;;;;;;;;;;13.40;99.90;;;;;;5055811;28;19909;-82
2022/03/30 09:02:23;;;;;;;;;;;13.40;99.90;;;;;;5055479;28;19912;-82
2022/03/30 09:05:08;;;;;;;;;;;13.60;99.90;;;;;;5055257;28;19913;-81
2022/03/30 09:07:34;;;;;;;;;;;13.50;99.90;;;;;;5037146;28;19931;-83
2022/03/30 09:09:59;;;;;;;;;;;13.50;99.90;;;;;;5055306;28;20421;-82
2022/03/30 09:12:25;;;;;;;;;;;13.30;99.90;;;;;;5055246;28;20015;-82
2022/03/30 09:14:59;;;;;;;;;;;13.40;99.90;;;;;;5055119;28;19909;-82
2022/03/30 09:17:26;;;;;;;;;;;13.40;99.90;;;;;;5055221;28;19909;-82
2022/03/30 09:19:52;;;;;;;;;;;13.30;99.90;;;;;;5036914;28;20403;-82
2022/03/30 09:22:18;;;;;;;;;;;13.30;99.90;;;;;;5037047;28;19972;-82
2022/03/30 09:24:44;;;;;;;;;;;13.10;99.90;;;;;;5054844;28;19913;-82
2022/03/30 09:27:09;;;;;;;;;;;13.00;99.90;;;;;;5054967;28;20011;-81
2022/03/30 09:29:37;;;;;;;;;;;12.80;99.90;;;;;;5037135;28;19909;-82
2022/03/30 09:32:04;;;;;;;;;;;12.90;99.90;;;;;;5054800;28;19988;-82
2022/03/30 09:34:33;;;;;;;;;;;12.80;99.90;;;;;;5054745;28;20043;-82
2022/03/30 09:36:59;;;;;;;;;;;12.80;99.90;;;;;;5054725;28;20288;-83
2022/03/30 09:39:32;;;;;;;;;;;12.80;99.90;;;;;;5054666;28;19916;-82
2022/03/30 09:41:59;;;;;;;;;;;12.70;99.90;;;;;;5036730;28;19908;-83
2022/03/30 09:44:25;;;;;;;;;;;12.70;99.90;;;;;;5054715;28;19916;-83
2022/03/30 09:46:57;;;;;;;;;;;12.80;99.90;;;;;;5054501;28;19913;-82
2022/03/30 09:49:38;;;;;;;;;;;12.70;99.90;;;;;;5054498;28;19909;-82
2022/03/30 09:52:22;;;;;;;;;;;12.80;99.90;;;;;;5054606;28;19908;-82
2022/03/30 09:54:53;;;;;;;;;;;13.10;99.90;;;;;;5054407;28;19915;-82
2022/03/30 09:57:19;;;;;;;;;;;13.00;99.90;;;;;;5054319;28;19955;-82
2022/03/30 09:59:55;;;;;;;;;;;13.00;99.90;;;;;;5036209;28;19913;-82
2022/03/30 10:02:21;;;;;;;;;;;13.20;99.90;;;;;;5054314;28;19909;-82
2022/03/30 10:04:46;;;;;;;;;;;13.30;99.90;;;;;;5054297;28;19915;-83
2022/03/30 10:07:12;;;;;;;;;;;13.60;99.90;;;;;;5036333;28;19909;-82
2022/03/30 10:09:39;;;;;;;;;;;13.80;99.90;;;;;;5054175;28;20380;-81
2022/03/30 10:12:05;;;;;;;;;;;13.90;99.90;;;;;;5054075;28;19908;-81
2022/03/30 10:14:33;;;;;;;;;;;14.10;99.90;;;;;;5054061;28;19995;-81
2022/03/30 10:16:59;;;;;;;;;;;14.00;99.90;;;;;;5054022;28;19923;-82
2022/03/30 10:19:24;;;;;;;;;;;14.10;99.90;;;;;;5053519;28;19921;-82
2022/03/30 10:22:01;;;;;;;;;;;14.40;99.90;;;;;;5054138;28;20315;-82
2022/03/30 10:24:26;;;;;;;;;;;14.50;99.90;;;;;;5054250;28;19972;-83
2022/03/30 10:26:55;;;;;;;;;;;14.60;99.90;;;;;;5053971;28;19908;-82
2022/03/30 10:29:22;;;;;;;;;;;14.80;99.90;;;;;;5053805;28;19996;-82
2022/03/30 10:32:06;;;;;;;;;;;15.10;99.90;;;;;;5053729;28;19915;-82
2022/03/30 10:34:32;;;;;;;;;;;15.50;99.90;;;;;;5053875;28;19917;-82
2022/03/30 10:37:07;;;;;;;;;;;15.90;99.90;;;;;;5053816;28;19959;-83
2022/03/30 10:39:33;;;;;;;;;;;15.90;99.90;;;;;;5035694;28;19915;-83
2022/03/30 10:41:58;;;;;;;;;;;15.70;99.90;;;;;;5053905;28;19913;-82
2022/03/30 10:44:43;;;;;;;;;;;15.60;99.90;;;;;;5053636;28;19913;-82
2022/03/30 10:47:08;;;;;;;;;;;15.50;99.90;;;;;;5053552;28;19909;-82
2022/03/30 10:49:41;;;;;;;;;;;15.80;99.90;;;;;;5053511;28;19909;-83
2022/03/30 10:52:25;;;;;;;;;;;16.10;99.90;;;;;;5053520;28;19909;-83
2022/03/30 10:54:55;;;;;;;;;;;15.90;99.90;;;;;;5053497;28;19909;-82
2022/03/30 10:57:39;;;;;;;;;;;15.80;99.90;;;;;;5035587;28;19909;-82
2022/03/30 11:00:06;;;;;;;;;;;15.90;99.90;;;;;;5053468;28;20373;-82
2022/03/30 11:02:41;;;;;;;;;;;16.10;99.90;;;;;;5035542;28;19915;-82
2022/03/30 11:05:10;;;;;;;;;;;15.90;99.90;;;;;;5053112;28;19916;-82
2022/03/30 11:07:37;;;;;;;;;;;15.70;99.90;;;;;;5053396;28;19998;-82
2022/03/30 11:10:19;;;;;;;;;;;15.30;99.90;;;;;;5053769;28;19913;-82
2022/03/30 11:13:17;;;;;;;;;;;15.10;99.90;;;;;;5056474;28;19909;-83
2022/03/30 11:15:59;;;;;;;;;;;14.90;99.90;;;;;;5034329;28;19913;-82
2022/03/30 11:18:26;;;;;;;;;;;15.00;99.90;;;;;;5046764;28;19921;-82
2022/03/30 11:21:14;;;;;;;;;;;15.00;99.90;;;;;;5057297;28;19909;-82
2022/03/30 11:23:55;;;;;;;;;;;14.90;99.90;;;;;;5057197;28;20357;-82
2022/03/30 11:26:41;;;;;;;;;;;15.40;99.90;;;;;;5057270;28;20369;-82
2022/03/30 11:29:27;;;;;;;;;;;15.80;99.90;;;;;;5046302;28;19955;-83
2022/03/30 11:31:52;;;;;;;;;;;16.60;99.90;;;;;;5057062;28;19909;-82
2022/03/30 11:34:30;;;;;;;;;;;16.70;99.90;;;;;;5057065;28;19909;-82
2022/03/30 11:36:56;;;;;;;;;;;17.20;99.90;;;;;;5056881;28;19912;-82
2022/03/30 11:39:30;;;;;;;;;;;17.70;98.90;;;;;;5057183;28;19916;-82
2022/03/30 11:41:58;;;;;;;;;;;18.10;97.70;;;;;;5057169;28;20377;-83
2022/03/30 11:47:16;;;;;;;;;;;18.00;96.40;;;;;;5056771;28;19958;-83
2022/03/30 11:49:56;;;;;;;;;;;17.50;96.60;;;;;;5056916;28;19916;-83
2022/03/30 11:52:23;;;;;;;;;;;17.10;97.50;;;;;;5056720;28;19908;-82
2022/03/30 11:54:49;;;;;;;;;;;16.70;98.00;;;;;;5056535;28;19909;-83
2022/03/30 11:57:15;;;;;;;;;;;16.50;98.60;;;;;;5056870;28;19923;-82
2022/03/30 11:59:41;;;;;;;;;;;16.20;99.10;;;;;;5056622;28;19909;-82
2022/03/30 12:02:07;;;;;;;;;;;16.10;99.90;;;;;;5056727;28;19932;-82
2022/03/30 12:04:33;;;;;;;;;;;16.50;99.90;;;;;;5055166;28;20270;-82
2022/03/30 12:06:58;;;;;;;;;;;16.80;99.10;;;;;;5055143;28;19916;-83
2022/03/30 12:09:24;;;;;;;;;;;16.90;99.00;;;;;;5056419;28;20420;-83
2022/03/30 12:11:50;;;;;;;;;;;17.00;98.30;;;;;;5056389;28;20377;-83
2022/03/30 12:14:27;;;;;;;;;;;16.80;98.00;;;;;;5055046;28;19913;-83
2022/03/30 12:16:54;;;;;;;;;;;17.00;98.50;;;;;;5056218;28;19960;-82
2022/03/30 12:19:19;;;;;;;;;;;17.00;97.70;;;;;;5055809;28;20294;-82
2022/03/30 12:21:45;;;;;;;;;;;16.90;97.40;;;;;;5056543;28;19975;-82
2022/03/30 12:24:11;;;;;;;;;;;16.70;98.00;;;;;;5056112;28;19916;-82
2022/03/30 12:26:37;;;;;;;;;;;16.70;97.80;;;;;;5056040;28;19909;-81
2022/03/30 12:29:07;;;;;;;;;;;17.10;97.30;;;;;;5056224;28;20008;-82
2022/03/30 12:31:40;;;;;;;;;;;17.40;96.60;;;;;;5056233;28;19952;-83
2022/03/30 12:34:10;;;;;;;;;;;17.60;96.50;;;;;;5056200;28;20007;-83
2022/03/30 12:36:42;;;;;;;;;;;18.20;96.10;;;;;;5055806;28;19960;-83
2022/03/30 12:39:19;;;;;;;;;;;18.70;94.70;;;;;;5056348;28;19916;-82
2022/03/30 12:41:54;;;;;;;;;;;18.80;94.50;;;;;;5056231;28;19909;-82
2022/03/30 12:44:19;;;;;;;;;;;18.60;93.80;;;;;;5037596;28;19913;-82
2022/03/30 12:46:46;;;;;;;;;;;18.30;94.30;;;;;;5055697;28;19916;-83
2022/03/30 12:49:12;;;;;;;;;;;18.20;95.00;;;;;;5037791;28;19944;-82
2022/03/30 12:51:39;;;;;;;;;;;17.90;94.50;;;;;;5055540;28;19909;-83
2022/03/30 12:54:19;;;;;;;;;;;17.30;95.40;;;;;;5055522;28;19909;-83
2022/03/30 12:56:47;;;;;;;;;;;16.90;96.10;;;;;;5055516;28;19913;-82
2022/03/30 12:59:18;;;;;;;;;;;16.70;96.40;;;;;;5055456;28;19908;-82
2022/03/30 13:01:46;;;;;;;;;;;16.40;97.00;;;;;;5055693;28;19913;-82
2022/03/30 13:04:19;;;;;;;;;;;16.30;97.10;;;;;;5055722;28;20258;-83
2022/03/30 13:07:03;;;;;;;;;;;16.20;97.30;;;;;;5055551;28;20396;-83
2022/03/30 13:09:29;;;;;;;;;;;16.10;97.70;;;;;;5055312;28;19912;-83
2022/03/30 13:11:57;;;;;;;;;;;16.30;98.00;;;;;;5055587;28;19909;-82
2022/03/30 13:14:24;;;;;;;;;;;16.40;97.20;;;;;;5055454;28;19913;-83
2022/03/30 13:17:10;;;;;;;;;;;16.10;97.80;;;;;;5055132;28;19917;-82
2022/03/30 13:19:36;;;;;;;;;;;15.80;98.10;;;;;;5055573;28;19921;-82
2022/03/30 13:22:04;;;;;;;;;;;15.60;98.70;;;;;;5055121;28;20350;-82
2022/03/30 13:24:34;;;;;;;;;;;15.50;99.10;;;;;;5055242;28;19908;-82
2022/03/30 13:27:07;;;;;;;;;;;15.70;99.00;;;;;;5055006;28;19913;-82
2022/03/30 13:29:35;;;;;;;;;;;15.80;98.60;;;;;;5055418;28;19916;-84
2022/03/30 13:32:01;;;;;;;;;;;15.70;98.20;;;;;;5054887;28;20361;-82
2022/03/30 13:34:30;;;;;;;;;;;15.60;98.30;;;;;;5054328;28;19909;-83
2022/03/30 13:36:55;;;;;;;;;;;15.50;98.90;;;;;;5054676;28;19962;-82
2022/03/30 13:39:21;;;;;;;;;;;15.40;99.00;;;;;;5053376;28;19909;-82
2022/03/30 13:41:48;;;;;;;;;;;15.70;99.00;;;;;;5054922;28;19909;-81
2022/03/30 13:44:13;;;;;;;;;;;16.00;98.50;;;;;;5054617;28;19909;-81
2022/03/30 13:46:39;;;;;;;;;;;16.10;98.00;;;;;;5054522;28;19959;-82
2022/03/30 13:49:06;;;;;;;;;;;16.10;97.50;;;;;;5054500;28;19958;-82
2022/03/30 13:51:32;;;;;;;;;;;16.10;97.70;;;;;;5054940;28;19909;-82
2022/03/30 13:53:58;;;;;;;;;;;16.30;96.90;;;;;;5054332;28;19959;-82
2022/03/30 13:56:23;;;;;;;;;;;16.50;96.80;;;;;;5054276;28;19913;-82
2022/03/30 13:58:52;;;;;;;;;;;16.50;96.30;;;;;;5053057;28;19912;-82
2022/03/30 14:01:18;;;;;;;;;;;16.40;96.40;;;;;;5054657;28;19963;-82
2022/03/30 14:03:44;;;;;;;;;;;16.50;96.40;;;;;;5054414;28;20293;-82
2022/03/30 14:06:10;;;;;;;;;;;16.50;96.00;;;;;;5054202;28;19931;-82
2022/03/30 14:08:35;;;;;;;;;;;17.00;94.90;;;;;;5054216;28;19932;-82
2022/03/30 14:11:03;;;;;;;;;;;17.50;94.70;;;;;;5054152;28;19962;-82
2022/03/30 14:13:29;;;;;;;;;;;17.70;93.70;;;;;;5052807;28;19994;-82
2022/03/30 14:15:54;;;;;;;;;;;18.00;93.00;;;;;;5054208;28;19967;-82
2022/03/30 14:18:24;;;;;;;;;;;18.70;92.00;;;;;;5045646;28;20007;-83
2022/03/30 14:20:53;;;;;;;;;;;19.60;90.90;;;;;;5054153;28;19919;-83
2022/03/30 14:23:19;;;;;;;;;;;22.20;85.80;;;;;;5053840;28;19909;-83
2022/03/30 14:25:44;;;;;;;;;;;22.90;78.20;;;;;;5018630;28;20292;-83
2022/03/30 14:28:11;;;;;;;;;;;21.50;78.90;;;;;;5073436;28;19991;-83